sensor_id;sensor_type;location;lat;lon;timestamp;P1;durP1;ratioP1;P2;durP2;ratioP2
11531;SDS011;5822;51.000;5.874;2024-01-11T00:01:19;33.63;;;31.02;;
11531;SDS011;5822;51.000;5.874;2024-01-11T00:03:45;32.90;;;30.40;;
11531;SDS011;5822;51.000;5.874;2024-01-11T00:06:10;32.10;;;29.70;;
11531;SDS011;5822;51.000;5.874;2024-01-11T00:08:36;32.90;;;30.40;;
11531;SDS011;5822;51.000;5.874;2024-01-11T00:11:02;33.85;;;31.25;;
11531;SDS011;5822;51.000;5.874;2024-01-11T00:13:28;32.60;;;30.10;;
11531;SDS011;5822;51.000;5.874;2024-01-11T00:15:54;32.00;;;29.70;;
11531;SDS011;5822;51.000;5.874;2024-01-11T00:18:19;32.77;;;30.27;;
11531;SDS011;5822;51.000;5.874;2024-01-11T00:20:45;33.70;;;31.17;;
11531;SDS011;5822;51.000;5.874;2024-01-11T00:23:11;33.55;;;31.05;;
11531;SDS011;5822;51.000;5.874;2024-01-11T00:25:37;33.10;;;30.60;;
11531;SDS011;5822;51.000;5.874;2024-01-11T00:28:02;32.97;;;30.43;;
11531;SDS011;5822;51.000;5.874;2024-01-11T00:30:28;34.08;;;31.58;;
11531;SDS011;5822;51.000;5.874;2024-01-11T00:32:54;34.20;;;31.60;;
11531;SDS011;5822;51.000;5.874;2024-01-11T00:35:20;33.13;;;30.70;;
11531;SDS011;5822;51.000;5.874;2024-01-11T00:37:46;32.63;;;30.20;;
11531;SDS011;5822;51.000;5.874;2024-01-11T00:40:11;32.17;;;29.77;;
11531;SDS011;5822;51.000;5.874;2024-01-11T00:42:37;32.78;;;30.38;;
11531;SDS011;5822;51.000;5.874;2024-01-11T00:45:03;33.72;;;31.23;;
11531;SDS011;5822;51.000;5.874;2024-01-11T00:47:29;33.97;;;31.38;;
11531;SDS011;5822;51.000;5.874;2024-01-11T00:49:54;33.80;;;31.30;;
11531;SDS011;5822;51.000;5.874;2024-01-11T00:52:20;33.63;;;31.13;;
11531;SDS011;5822;51.000;5.874;2024-01-11T00:54:46;33.10;;;30.60;;
11531;SDS011;5822;51.000;5.874;2024-01-11T00:57:11;34.00;;;31.40;;
11531;SDS011;5822;51.000;5.874;2024-01-11T00:59:37;34.03;;;31.45;;
11531;SDS011;5822;51.000;5.874;2024-01-11T01:02:04;34.22;;;31.73;;
11531;SDS011;5822;51.000;5.874;2024-01-11T01:04:30;35.65;;;33.05;;
11531;SDS011;5822;51.000;5.874;2024-01-11T01:06:56;36.05;;;33.55;;
11531;SDS011;5822;51.000;5.874;2024-01-11T01:09:22;32.77;;;30.27;;
11531;SDS011;5822;51.000;5.874;2024-01-11T01:11:48;32.90;;;30.40;;
11531;SDS011;5822;51.000;5.874;2024-01-11T01:14:13;32.55;;;30.05;;
11531;SDS011;5822;51.000;5.874;2024-01-11T01:16:39;32.20;;;29.83;;
11531;SDS011;5822;51.000;5.874;2024-01-11T01:19:05;32.27;;;29.97;;
11531;SDS011;5822;51.000;5.874;2024-01-11T01:21:30;32.80;;;30.33;;
11531;SDS011;5822;51.000;5.874;2024-01-11T01:23:56;32.10;;;29.60;;
11531;SDS011;5822;51.000;5.874;2024-01-11T01:26:22;32.08;;;29.77;;
11531;SDS011;5822;51.000;5.874;2024-01-11T01:28:47;31.13;;;28.83;;
11531;SDS011;5822;51.000;5.874;2024-01-11T01:31:13;31.07;;;28.87;;
11531;SDS011;5822;51.000;5.874;2024-01-11T01:33:39;31.83;;;29.52;;
11531;SDS011;5822;51.000;5.874;2024-01-11T01:36:07;30.50;;;28.30;;
11531;SDS011;5822;51.000;5.874;2024-01-11T01:38:35;31.75;;;29.27;;
11531;SDS011;5822;51.000;5.874;2024-01-11T01:41:00;31.87;;;29.47;;
11531;SDS011;5822;51.000;5.874;2024-01-11T01:43:26;31.43;;;29.07;;
11531;SDS011;5822;51.000;5.874;2024-01-11T01:45:52;31.15;;;28.83;;
11531;SDS011;5822;51.000;5.874;2024-01-11T01:48:18;32.97;;;30.38;;
11531;SDS011;5822;51.000;5.874;2024-01-11T01:50:44;32.85;;;30.35;;
11531;SDS011;5822;51.000;5.874;2024-01-11T01:53:16;32.95;;;30.45;;
11531;SDS011;5822;51.000;5.874;2024-01-11T01:55:44;32.63;;;30.23;;
11531;SDS011;5822;51.000;5.874;2024-01-11T01:58:11;32.67;;;30.17;;
11531;SDS011;5822;51.000;5.874;2024-01-11T02:00:37;31.08;;;28.77;;
11531;SDS011;5822;51.000;5.874;2024-01-11T02:03:03;32.28;;;29.88;;
11531;SDS011;5822;51.000;5.874;2024-01-11T02:05:29;32.65;;;30.13;;
11531;SDS011;5822;51.000;5.874;2024-01-11T02:07:55;31.65;;;29.23;;
11531;SDS011;5822;51.000;5.874;2024-01-11T02:10:24;31.10;;;28.80;;
11531;SDS011;5822;51.000;5.874;2024-01-11T02:12:50;30.70;;;28.50;;
11531;SDS011;5822;51.000;5.874;2024-01-11T02:15:16;31.90;;;29.52;;
11531;SDS011;5822;51.000;5.874;2024-01-11T02:17:41;31.90;;;29.50;;
11531;SDS011;5822;51.000;5.874;2024-01-11T02:20:07;31.77;;;29.37;;
11531;SDS011;5822;51.000;5.874;2024-01-11T02:22:38;31.80;;;29.40;;
11531;SDS011;5822;51.000;5.874;2024-01-11T02:25:06;31.42;;;29.05;;
11531;SDS011;5822;51.000;5.874;2024-01-11T02:27:44;31.77;;;29.40;;
11531;SDS011;5822;51.000;5.874;2024-01-11T02:30:12;31.40;;;29.10;;
11531;SDS011;5822;51.000;5.874;2024-01-11T02:32:39;31.15;;;28.85;;
11531;SDS011;5822;51.000;5.874;2024-01-11T02:35:04;30.70;;;28.40;;
11531;SDS011;5822;51.000;5.874;2024-01-11T02:37:30;30.85;;;28.58;;
11531;SDS011;5822;51.000;5.874;2024-01-11T02:39:56;31.88;;;29.48;;
11531;SDS011;5822;51.000;5.874;2024-01-11T02:42:22;33.50;;;31.00;;
11531;SDS011;5822;51.000;5.874;2024-01-11T02:44:47;32.80;;;30.30;;
11531;SDS011;5822;51.000;5.874;2024-01-11T02:47:13;31.98;;;29.58;;
11531;SDS011;5822;51.000;5.874;2024-01-11T02:49:39;31.23;;;28.93;;
11531;SDS011;5822;51.000;5.874;2024-01-11T02:52:04;30.80;;;28.50;;
11531;SDS011;5822;51.000;5.874;2024-01-11T02:54:30;31.38;;;29.08;;
11531;SDS011;5822;51.000;5.874;2024-01-11T02:56:56;31.50;;;29.20;;
11531;SDS011;5822;51.000;5.874;2024-01-11T02:59:22;31.02;;;28.73;;
11531;SDS011;5822;51.000;5.874;2024-01-11T03:01:48;32.63;;;30.13;;
11531;SDS011;5822;51.000;5.874;2024-01-11T03:04:14;31.20;;;28.90;;
11531;SDS011;5822;51.000;5.874;2024-01-11T03:06:40;31.23;;;28.92;;
11531;SDS011;5822;51.000;5.874;2024-01-11T03:09:06;31.23;;;29.02;;
11531;SDS011;5822;51.000;5.874;2024-01-11T03:11:32;29.97;;;27.77;;
11531;SDS011;5822;51.000;5.874;2024-01-11T03:13:57;31.90;;;29.50;;
11531;SDS011;5822;51.000;5.874;2024-01-11T03:16:23;30.73;;;28.50;;
11531;SDS011;5822;51.000;5.874;2024-01-11T03:18:48;30.37;;;28.17;;
11531;SDS011;5822;51.000;5.874;2024-01-11T03:21:14;32.20;;;29.80;;
11531;SDS011;5822;51.000;5.874;2024-01-11T03:23:40;33.37;;;30.77;;
11531;SDS011;5822;51.000;5.874;2024-01-11T03:26:12;32.65;;;30.15;;
11531;SDS011;5822;51.000;5.874;2024-01-11T03:28:41;31.27;;;28.92;;
11531;SDS011;5822;51.000;5.874;2024-01-11T03:31:07;32.50;;;30.00;;
11531;SDS011;5822;51.000;5.874;2024-01-11T03:33:34;33.25;;;30.70;;
11531;SDS011;5822;51.000;5.874;2024-01-11T03:36:05;34.78;;;32.08;;
11531;SDS011;5822;51.000;5.874;2024-01-11T03:38:32;33.50;;;31.00;;
11531;SDS011;5822;51.000;5.874;2024-01-11T03:40:58;32.95;;;30.55;;
11531;SDS011;5822;51.000;5.874;2024-01-11T03:43:23;31.13;;;28.83;;
11531;SDS011;5822;51.000;5.874;2024-01-11T03:45:49;31.33;;;29.00;;
11531;SDS011;5822;51.000;5.874;2024-01-11T03:48:15;31.98;;;29.67;;
11531;SDS011;5822;51.000;5.874;2024-01-11T03:50:41;32.33;;;29.93;;
11531;SDS011;5822;51.000;5.874;2024-01-11T03:53:06;31.30;;;28.90;;
11531;SDS011;5822;51.000;5.874;2024-01-11T03:55:33;31.33;;;29.02;;
11531;SDS011;5822;51.000;5.874;2024-01-11T03:57:58;32.38;;;29.98;;
11531;SDS011;5822;51.000;5.874;2024-01-11T04:00:24;32.25;;;29.85;;
11531;SDS011;5822;51.000;5.874;2024-01-11T04:02:50;31.90;;;29.50;;
11531;SDS011;5822;51.000;5.874;2024-01-11T04:05:15;31.30;;;29.00;;
11531;SDS011;5822;51.000;5.874;2024-01-11T04:07:42;31.70;;;29.30;;
11531;SDS011;5822;51.000;5.874;2024-01-11T04:10:08;31.52;;;29.15;;
11531;SDS011;5822;51.000;5.874;2024-01-11T04:12:36;32.10;;;29.67;;
11531;SDS011;5822;51.000;5.874;2024-01-11T04:15:02;32.55;;;30.05;;
11531;SDS011;5822;51.000;5.874;2024-01-11T04:17:28;32.47;;;30.02;;
11531;SDS011;5822;51.000;5.874;2024-01-11T04:19:54;32.53;;;30.02;;
11531;SDS011;5822;51.000;5.874;2024-01-11T04:22:20;32.80;;;30.30;;
11531;SDS011;5822;51.000;5.874;2024-01-11T04:24:45;31.83;;;29.43;;
11531;SDS011;5822;51.000;5.874;2024-01-11T04:27:11;32.45;;;30.00;;
11531;SDS011;5822;51.000;5.874;2024-01-11T04:29:37;32.05;;;29.65;;
11531;SDS011;5822;51.000;5.874;2024-01-11T04:32:02;31.30;;;29.00;;
11531;SDS011;5822;51.000;5.874;2024-01-11T04:34:28;31.93;;;29.53;;
11531;SDS011;5822;51.000;5.874;2024-01-11T04:36:54;33.03;;;30.52;;
11531;SDS011;5822;51.000;5.874;2024-01-11T04:39:19;32.50;;;30.00;;
11531;SDS011;5822;51.000;5.874;2024-01-11T04:41:45;32.07;;;29.67;;
11531;SDS011;5822;51.000;5.874;2024-01-11T04:44:11;32.72;;;30.23;;
11531;SDS011;5822;51.000;5.874;2024-01-11T04:46:36;31.60;;;29.30;;
11531;SDS011;5822;51.000;5.874;2024-01-11T04:49:02;31.90;;;29.58;;
11531;SDS011;5822;51.000;5.874;2024-01-11T04:51:28;31.93;;;29.53;;
11531;SDS011;5822;51.000;5.874;2024-01-11T04:53:53;31.13;;;28.83;;
11531;SDS011;5822;51.000;5.874;2024-01-11T04:56:19;31.85;;;29.45;;
11531;SDS011;5822;51.000;5.874;2024-01-11T04:58:45;31.80;;;29.40;;
11531;SDS011;5822;51.000;5.874;2024-01-11T05:01:16;31.25;;;28.95;;
11531;SDS011;5822;51.000;5.874;2024-01-11T05:03:42;32.17;;;29.77;;
11531;SDS011;5822;51.000;5.874;2024-01-11T05:06:14;32.63;;;30.23;;
11531;SDS011;5822;51.000;5.874;2024-01-11T05:08:42;32.17;;;29.80;;
11531;SDS011;5822;51.000;5.874;2024-01-11T05:11:14;31.48;;;29.17;;
11531;SDS011;5822;51.000;5.874;2024-01-11T05:13:44;30.92;;;28.63;;
11531;SDS011;5822;51.000;5.874;2024-01-11T05:16:28;31.50;;;29.20;;
11531;SDS011;5822;51.000;5.874;2024-01-11T05:18:55;32.50;;;30.10;;
11531;SDS011;5822;51.000;5.874;2024-01-11T05:21:22;32.05;;;29.65;;
11531;SDS011;5822;51.000;5.874;2024-01-11T05:23:48;33.30;;;30.70;;
11531;SDS011;5822;51.000;5.874;2024-01-11T05:26:15;34.92;;;32.22;;
11531;SDS011;5822;51.000;5.874;2024-01-11T05:28:41;35.13;;;32.42;;
11531;SDS011;5822;51.000;5.874;2024-01-11T05:31:09;34.08;;;31.48;;
11531;SDS011;5822;51.000;5.874;2024-01-11T05:33:35;33.92;;;31.38;;
11531;SDS011;5822;51.000;5.874;2024-01-11T05:36:01;33.90;;;31.33;;
11531;SDS011;5822;51.000;5.874;2024-01-11T05:38:27;33.35;;;30.88;;
11531;SDS011;5822;51.000;5.874;2024-01-11T05:40:53;33.33;;;30.83;;
11531;SDS011;5822;51.000;5.874;2024-01-11T05:43:18;33.55;;;31.05;;
11531;SDS011;5822;51.000;5.874;2024-01-11T05:45:44;33.80;;;31.27;;
11531;SDS011;5822;51.000;5.874;2024-01-11T05:48:10;34.33;;;31.70;;
11531;SDS011;5822;51.000;5.874;2024-01-11T05:50:36;33.20;;;30.70;;
11531;SDS011;5822;51.000;5.874;2024-01-11T05:53:02;35.10;;;32.38;;
11531;SDS011;5822;51.000;5.874;2024-01-11T05:55:27;33.95;;;31.35;;
11531;SDS011;5822;51.000;5.874;2024-01-11T05:57:53;35.03;;;32.33;;
11531;SDS011;5822;51.000;5.874;2024-01-11T06:00:19;34.17;;;31.63;;
11531;SDS011;5822;51.000;5.874;2024-01-11T06:02:45;33.65;;;31.15;;
11531;SDS011;5822;51.000;5.874;2024-01-11T06:05:11;33.67;;;31.07;;
11531;SDS011;5822;51.000;5.874;2024-01-11T06:07:40;32.95;;;30.55;;
11531;SDS011;5822;51.000;5.874;2024-01-11T06:10:06;34.87;;;32.27;;
11531;SDS011;5822;51.000;5.874;2024-01-11T06:12:33;35.17;;;32.58;;
11531;SDS011;5822;51.000;5.874;2024-01-11T06:15:00;34.65;;;32.05;;
11531;SDS011;5822;51.000;5.874;2024-01-11T06:17:26;36.15;;;33.45;;
11531;SDS011;5822;51.000;5.874;2024-01-11T06:19:52;36.80;;;34.00;;
11531;SDS011;5822;51.000;5.874;2024-01-11T06:22:18;35.43;;;32.83;;
11531;SDS011;5822;51.000;5.874;2024-01-11T06:24:43;34.38;;;31.73;;
11531;SDS011;5822;51.000;5.874;2024-01-11T06:27:09;35.30;;;32.60;;
11531;SDS011;5822;51.000;5.874;2024-01-11T06:29:35;36.43;;;33.63;;
11531;SDS011;5822;51.000;5.874;2024-01-11T06:32:00;35.37;;;32.67;;
11531;SDS011;5822;51.000;5.874;2024-01-11T06:34:27;35.55;;;32.85;;
11531;SDS011;5822;51.000;5.874;2024-01-11T06:36:53;35.90;;;33.13;;
11531;SDS011;5822;51.000;5.874;2024-01-11T06:39:19;37.55;;;34.58;;
11531;SDS011;5822;51.000;5.874;2024-01-11T06:41:45;39.00;;;35.87;;
11531;SDS011;5822;51.000;5.874;2024-01-11T06:44:10;38.47;;;35.47;;
11531;SDS011;5822;51.000;5.874;2024-01-11T06:46:36;36.72;;;33.92;;
11531;SDS011;5822;51.000;5.874;2024-01-11T06:49:04;35.92;;;33.13;;
11531;SDS011;5822;51.000;5.874;2024-01-11T06:51:30;35.30;;;32.60;;
11531;SDS011;5822;51.000;5.874;2024-01-11T06:53:55;35.53;;;32.83;;
11531;SDS011;5822;51.000;5.874;2024-01-11T06:56:21;34.90;;;32.20;;
11531;SDS011;5822;51.000;5.874;2024-01-11T06:58:46;37.00;;;34.20;;
11531;SDS011;5822;51.000;5.874;2024-01-11T07:01:12;36.05;;;33.35;;
11531;SDS011;5822;51.000;5.874;2024-01-11T07:03:39;37.20;;;34.33;;
11531;SDS011;5822;51.000;5.874;2024-01-11T07:06:05;36.40;;;33.60;;
11531;SDS011;5822;51.000;5.874;2024-01-11T07:08:31;38.10;;;35.10;;
11531;SDS011;5822;51.000;5.874;2024-01-11T07:11:00;37.05;;;34.13;;
11531;SDS011;5822;51.000;5.874;2024-01-11T07:13:29;35.60;;;32.90;;
11531;SDS011;5822;51.000;5.874;2024-01-11T07:15:56;36.80;;;34.00;;
11531;SDS011;5822;51.000;5.874;2024-01-11T07:18:23;35.85;;;33.05;;
11531;SDS011;5822;51.000;5.874;2024-01-11T07:20:52;36.92;;;34.05;;
11531;SDS011;5822;51.000;5.874;2024-01-11T07:23:18;36.10;;;33.30;;
11531;SDS011;5822;51.000;5.874;2024-01-11T07:25:44;35.20;;;32.60;;
11531;SDS011;5822;51.000;5.874;2024-01-11T07:28:09;36.67;;;33.87;;
11531;SDS011;5822;51.000;5.874;2024-01-11T07:30:35;36.50;;;33.78;;
11531;SDS011;5822;51.000;5.874;2024-01-11T07:33:01;36.60;;;33.83;;
11531;SDS011;5822;51.000;5.874;2024-01-11T07:35:26;36.90;;;34.07;;
11531;SDS011;5822;51.000;5.874;2024-01-11T07:37:52;38.22;;;35.33;;
11531;SDS011;5822;51.000;5.874;2024-01-11T07:40:19;36.88;;;34.08;;
11531;SDS011;5822;51.000;5.874;2024-01-11T07:42:45;37.63;;;34.80;;
11531;SDS011;5822;51.000;5.874;2024-01-11T07:45:11;37.10;;;34.20;;
11531;SDS011;5822;51.000;5.874;2024-01-11T07:47:37;37.05;;;34.25;;
11531;SDS011;5822;51.000;5.874;2024-01-11T07:50:04;36.15;;;33.35;;
11531;SDS011;5822;51.000;5.874;2024-01-11T07:52:37;35.60;;;32.90;;
11531;SDS011;5822;51.000;5.874;2024-01-11T07:55:04;37.53;;;34.63;;
11531;SDS011;5822;51.000;5.874;2024-01-11T07:57:36;37.92;;;35.03;;
11531;SDS011;5822;51.000;5.874;2024-01-11T08:00:06;39.17;;;36.08;;
11531;SDS011;5822;51.000;5.874;2024-01-11T08:02:33;39.08;;;36.08;;
11531;SDS011;5822;51.000;5.874;2024-01-11T08:04:59;38.20;;;35.30;;
11531;SDS011;5822;51.000;5.874;2024-01-11T08:07:25;39.13;;;36.08;;
11531;SDS011;5822;51.000;5.874;2024-01-11T08:09:54;38.67;;;35.78;;
11531;SDS011;5822;51.000;5.874;2024-01-11T08:12:20;39.72;;;36.70;;
11531;SDS011;5822;51.000;5.874;2024-01-11T08:14:46;39.63;;;36.57;;
11531;SDS011;5822;51.000;5.874;2024-01-11T08:17:13;38.92;;;35.92;;
11531;SDS011;5822;51.000;5.874;2024-01-11T08:19:39;40.20;;;37.10;;
11531;SDS011;5822;51.000;5.874;2024-01-11T08:22:09;40.70;;;37.60;;
11531;SDS011;5822;51.000;5.874;2024-01-11T08:24:37;39.50;;;36.40;;
11531;SDS011;5822;51.000;5.874;2024-01-11T08:27:04;39.72;;;36.60;;
11531;SDS011;5822;51.000;5.874;2024-01-11T08:29:31;39.45;;;36.35;;
11531;SDS011;5822;51.000;5.874;2024-01-11T08:31:58;40.58;;;37.38;;
11531;SDS011;5822;51.000;5.874;2024-01-11T08:34:29;41.65;;;38.35;;
11531;SDS011;5822;51.000;5.874;2024-01-11T08:36:56;42.08;;;38.70;;
11531;SDS011;5822;51.000;5.874;2024-01-11T08:39:24;38.90;;;35.70;;
11531;SDS011;5822;51.000;5.874;2024-01-11T08:41:50;38.03;;;35.13;;
11531;SDS011;5822;51.000;5.874;2024-01-11T08:44:17;38.78;;;35.78;;
11531;SDS011;5822;51.000;5.874;2024-01-11T08:46:43;38.13;;;35.20;;
11531;SDS011;5822;51.000;5.874;2024-01-11T08:49:09;38.70;;;35.70;;
11531;SDS011;5822;51.000;5.874;2024-01-11T08:51:34;39.03;;;35.92;;
11531;SDS011;5822;51.000;5.874;2024-01-11T08:54:00;38.33;;;35.43;;
11531;SDS011;5822;51.000;5.874;2024-01-11T08:56:26;39.47;;;36.47;;
11531;SDS011;5822;51.000;5.874;2024-01-11T08:58:53;39.65;;;36.60;;
11531;SDS011;5822;51.000;5.874;2024-01-11T09:01:18;39.90;;;36.80;;
11531;SDS011;5822;51.000;5.874;2024-01-11T09:03:44;40.20;;;37.00;;
11531;SDS011;5822;51.000;5.874;2024-01-11T09:06:10;39.17;;;36.17;;
11531;SDS011;5822;51.000;5.874;2024-01-11T09:08:38;37.97;;;34.97;;
11531;SDS011;5822;51.000;5.874;2024-01-11T09:11:06;40.22;;;37.03;;
11531;SDS011;5822;51.000;5.874;2024-01-11T09:13:31;40.97;;;37.67;;
11531;SDS011;5822;51.000;5.874;2024-01-11T09:15:57;41.63;;;38.33;;
11531;SDS011;5822;51.000;5.874;2024-01-11T09:18:23;41.22;;;37.92;;
11531;SDS011;5822;51.000;5.874;2024-01-11T09:20:49;39.47;;;36.37;;
11531;SDS011;5822;51.000;5.874;2024-01-11T09:23:15;39.58;;;36.58;;
11531;SDS011;5822;51.000;5.874;2024-01-11T09:25:43;41.05;;;37.75;;
11531;SDS011;5822;51.000;5.874;2024-01-11T09:28:08;40.30;;;37.10;;
11531;SDS011;5822;51.000;5.874;2024-01-11T09:30:34;41.17;;;37.88;;
11531;SDS011;5822;51.000;5.874;2024-01-11T09:32:59;42.00;;;38.72;;
11531;SDS011;5822;51.000;5.874;2024-01-11T09:35:25;40.87;;;37.67;;
11531;SDS011;5822;51.000;5.874;2024-01-11T09:37:51;41.35;;;37.95;;
11531;SDS011;5822;51.000;5.874;2024-01-11T09:40:17;41.03;;;37.72;;
11531;SDS011;5822;51.000;5.874;2024-01-11T09:45:18;42.85;;;39.47;;
11531;SDS011;5822;51.000;5.874;2024-01-11T09:47:44;41.20;;;38.00;;
11531;SDS011;5822;51.000;5.874;2024-01-11T09:50:11;42.95;;;39.55;;
11531;SDS011;5822;51.000;5.874;2024-01-11T09:52:48;40.33;;;37.22;;
11531;SDS011;5822;51.000;5.874;2024-01-11T09:55:15;41.05;;;37.88;;
11531;SDS011;5822;51.000;5.874;2024-01-11T09:57:43;43.28;;;39.78;;
11531;SDS011;5822;51.000;5.874;2024-01-11T10:00:11;40.65;;;37.45;;
11531;SDS011;5822;51.000;5.874;2024-01-11T10:02:47;41.15;;;37.85;;
11531;SDS011;5822;51.000;5.874;2024-01-11T10:05:12;44.53;;;40.93;;
11531;SDS011;5822;51.000;5.874;2024-01-11T10:07:41;42.85;;;39.45;;
11531;SDS011;5822;51.000;5.874;2024-01-11T10:10:07;43.22;;;39.80;;
11531;SDS011;5822;51.000;5.874;2024-01-11T10:12:36;42.78;;;39.38;;
11531;SDS011;5822;51.000;5.874;2024-01-11T10:15:06;42.28;;;38.97;;
11531;SDS011;5822;51.000;5.874;2024-01-11T10:17:35;44.13;;;40.53;;
11531;SDS011;5822;51.000;5.874;2024-01-11T10:20:14;44.45;;;40.88;;
11531;SDS011;5822;51.000;5.874;2024-01-11T10:22:40;44.10;;;40.67;;
11531;SDS011;5822;51.000;5.874;2024-01-11T10:25:13;41.60;;;38.40;;
11531;SDS011;5822;51.000;5.874;2024-01-11T10:27:41;41.83;;;38.53;;
11531;SDS011;5822;51.000;5.874;2024-01-11T10:30:07;41.33;;;38.13;;
11531;SDS011;5822;51.000;5.874;2024-01-11T10:32:34;41.72;;;38.50;;
11531;SDS011;5822;51.000;5.874;2024-01-11T10:35:00;41.27;;;37.97;;
11531;SDS011;5822;51.000;5.874;2024-01-11T10:37:30;43.85;;;40.35;;
11531;SDS011;5822;51.000;5.874;2024-01-11T10:40:03;41.90;;;38.58;;
11531;SDS011;5822;51.000;5.874;2024-01-11T10:42:34;40.85;;;37.65;;
11531;SDS011;5822;51.000;5.874;2024-01-11T10:45:03;39.85;;;36.65;;
11531;SDS011;5822;51.000;5.874;2024-01-11T10:47:32;40.97;;;37.78;;
11531;SDS011;5822;51.000;5.874;2024-01-11T10:50:00;39.40;;;36.30;;
11531;SDS011;5822;51.000;5.874;2024-01-11T10:52:28;39.50;;;36.40;;
11531;SDS011;5822;51.000;5.874;2024-01-11T10:55:06;39.90;;;36.80;;
11531;SDS011;5822;51.000;5.874;2024-01-11T10:57:32;41.03;;;37.83;;
11531;SDS011;5822;51.000;5.874;2024-01-11T10:59:59;40.42;;;37.22;;
11531;SDS011;5822;51.000;5.874;2024-01-11T11:02:28;40.97;;;37.78;;
11531;SDS011;5822;51.000;5.874;2024-01-11T11:04:54;42.20;;;38.80;;
11531;SDS011;5822;51.000;5.874;2024-01-11T11:07:21;42.05;;;38.83;;
11531;SDS011;5822;51.000;5.874;2024-01-11T11:09:49;40.72;;;37.53;;
11531;SDS011;5822;51.000;5.874;2024-01-11T11:12:16;41.08;;;37.83;;
11531;SDS011;5822;51.000;5.874;2024-01-11T11:14:44;47.33;;;43.55;;
11531;SDS011;5822;51.000;5.874;2024-01-11T11:17:14;46.92;;;43.20;;
11531;SDS011;5822;51.000;5.874;2024-01-11T11:19:40;46.35;;;42.55;;
11531;SDS011;5822;51.000;5.874;2024-01-11T11:22:06;46.90;;;43.20;;
11531;SDS011;5822;51.000;5.874;2024-01-11T11:24:33;43.80;;;40.30;;
11531;SDS011;5822;51.000;5.874;2024-01-11T11:27:00;45.72;;;42.03;;
11531;SDS011;5822;51.000;5.874;2024-01-11T11:29:26;43.80;;;40.40;;
11531;SDS011;5822;51.000;5.874;2024-01-11T11:31:51;43.30;;;39.88;;
11531;SDS011;5822;51.000;5.874;2024-01-11T11:34:39;41.77;;;38.53;;
11531;SDS011;5822;51.000;5.874;2024-01-11T11:37:09;41.75;;;38.45;;
11531;SDS011;5822;51.000;5.874;2024-01-11T11:39:36;41.80;;;38.50;;
11531;SDS011;5822;51.000;5.874;2024-01-11T11:42:02;42.37;;;38.97;;
11531;SDS011;5822;51.000;5.874;2024-01-11T11:44:29;41.80;;;38.40;;
11531;SDS011;5822;51.000;5.874;2024-01-11T11:46:55;38.83;;;35.78;;
11531;SDS011;5822;51.000;5.874;2024-01-11T11:49:57;43.80;;;40.30;;
11531;SDS011;5822;51.000;5.874;2024-01-11T11:52:24;43.15;;;39.85;;
11531;SDS011;5822;51.000;5.874;2024-01-11T11:54:50;41.35;;;38.28;;
11531;SDS011;5822;51.000;5.874;2024-01-11T11:57:16;39.33;;;36.33;;
11531;SDS011;5822;51.000;5.874;2024-01-11T11:59:42;38.80;;;35.80;;
11531;SDS011;5822;51.000;5.874;2024-01-11T12:02:08;39.92;;;36.95;;
11531;SDS011;5822;51.000;5.874;2024-01-11T12:04:42;39.25;;;36.22;;
11531;SDS011;5822;51.000;5.874;2024-01-11T12:07:12;41.90;;;38.67;;
11531;SDS011;5822;51.000;5.874;2024-01-11T12:09:37;40.90;;;37.80;;
11531;SDS011;5822;51.000;5.874;2024-01-11T12:12:03;39.72;;;36.83;;
11531;SDS011;5822;51.000;5.874;2024-01-11T12:14:29;37.17;;;34.38;;
11531;SDS011;5822;51.000;5.874;2024-01-11T12:16:56;39.27;;;36.27;;
11531;SDS011;5822;51.000;5.874;2024-01-11T12:19:25;39.65;;;36.75;;
11531;SDS011;5822;51.000;5.874;2024-01-11T12:21:50;38.70;;;35.80;;
11531;SDS011;5822;51.000;5.874;2024-01-11T12:24:16;39.50;;;36.55;;
11531;SDS011;5822;51.000;5.874;2024-01-11T12:26:45;36.80;;;34.10;;
11531;SDS011;5822;51.000;5.874;2024-01-11T12:29:11;36.28;;;33.67;;
11531;SDS011;5822;51.000;5.874;2024-01-11T12:31:39;37.72;;;35.00;;
11531;SDS011;5822;51.000;5.874;2024-01-11T12:34:05;36.30;;;33.70;;
11531;SDS011;5822;51.000;5.874;2024-01-11T12:36:34;36.42;;;33.75;;
11531;SDS011;5822;51.000;5.874;2024-01-11T12:39:00;36.40;;;33.80;;
11531;SDS011;5822;51.000;5.874;2024-01-11T12:41:26;36.50;;;33.90;;
11531;SDS011;5822;51.000;5.874;2024-01-11T12:43:51;36.17;;;33.47;;
11531;SDS011;5822;51.000;5.874;2024-01-11T12:46:18;35.05;;;32.45;;
11531;SDS011;5822;51.000;5.874;2024-01-11T12:48:43;34.90;;;32.30;;
11531;SDS011;5822;51.000;5.874;2024-01-11T12:51:09;34.67;;;32.08;;
11531;SDS011;5822;51.000;5.874;2024-01-11T12:53:35;33.40;;;31.00;;
11531;SDS011;5822;51.000;5.874;2024-01-11T12:56:03;34.40;;;31.80;;
11531;SDS011;5822;51.000;5.874;2024-01-11T12:58:33;33.80;;;31.30;;
11531;SDS011;5822;51.000;5.874;2024-01-11T13:00:58;33.37;;;30.97;;
11531;SDS011;5822;51.000;5.874;2024-01-11T13:03:24;32.30;;;30.00;;
11531;SDS011;5822;51.000;5.874;2024-01-11T13:05:52;32.30;;;29.90;;
11531;SDS011;5822;51.000;5.874;2024-01-11T13:08:18;34.33;;;31.83;;
11531;SDS011;5822;51.000;5.874;2024-01-11T13:10:43;34.13;;;31.63;;
11531;SDS011;5822;51.000;5.874;2024-01-11T13:13:09;33.53;;;31.13;;
11531;SDS011;5822;51.000;5.874;2024-01-11T13:15:35;33.55;;;31.02;;
11531;SDS011;5822;51.000;5.874;2024-01-11T13:18:01;32.78;;;30.48;;
11531;SDS011;5822;51.000;5.874;2024-01-11T13:20:27;32.20;;;29.90;;
11531;SDS011;5822;51.000;5.874;2024-01-11T13:25:47;36.17;;;33.47;;
11531;SDS011;5822;51.000;5.874;2024-01-11T13:28:14;34.47;;;31.98;;
11531;SDS011;5822;51.000;5.874;2024-01-11T13:30:40;35.25;;;32.72;;
11531;SDS011;5822;51.000;5.874;2024-01-11T13:33:07;37.47;;;34.67;;
11531;SDS011;5822;51.000;5.874;2024-01-11T13:35:34;36.40;;;33.80;;
11531;SDS011;5822;51.000;5.874;2024-01-11T13:38:01;36.95;;;34.22;;
11531;SDS011;5822;51.000;5.874;2024-01-11T13:40:27;36.25;;;33.65;;
11531;SDS011;5822;51.000;5.874;2024-01-11T13:42:54;38.25;;;35.35;;
11531;SDS011;5822;51.000;5.874;2024-01-11T13:45:23;38.10;;;35.30;;
11531;SDS011;5822;51.000;5.874;2024-01-11T13:47:53;37.42;;;34.63;;
11531;SDS011;5822;51.000;5.874;2024-01-11T13:50:19;36.00;;;33.40;;
11531;SDS011;5822;51.000;5.874;2024-01-11T13:52:45;34.28;;;31.88;;
11531;SDS011;5822;51.000;5.874;2024-01-11T13:55:11;33.67;;;31.25;;
11531;SDS011;5822;51.000;5.874;2024-01-11T13:57:37;34.08;;;31.67;;
11531;SDS011;5822;51.000;5.874;2024-01-11T14:00:06;35.15;;;32.53;;
11531;SDS011;5822;51.000;5.874;2024-01-11T14:02:35;33.30;;;30.90;;
11531;SDS011;5822;51.000;5.874;2024-01-11T14:05:02;32.65;;;30.33;;
11531;SDS011;5822;51.000;5.874;2024-01-11T14:07:29;33.45;;;31.05;;
11531;SDS011;5822;51.000;5.874;2024-01-11T14:09:55;33.25;;;30.83;;
11531;SDS011;5822;51.000;5.874;2024-01-11T14:12:21;34.63;;;32.03;;
11531;SDS011;5822;51.000;5.874;2024-01-11T14:14:47;34.20;;;31.67;;
11531;SDS011;5822;51.000;5.874;2024-01-11T14:17:12;34.03;;;31.52;;
11531;SDS011;5822;51.000;5.874;2024-01-11T14:19:38;31.67;;;29.45;;
11531;SDS011;5822;51.000;5.874;2024-01-11T14:22:04;33.80;;;31.40;;
11531;SDS011;5822;51.000;5.874;2024-01-11T14:24:30;32.47;;;30.17;;
11531;SDS011;5822;51.000;5.874;2024-01-11T14:26:55;33.58;;;31.17;;
11531;SDS011;5822;51.000;5.874;2024-01-11T14:29:21;32.65;;;30.35;;
11531;SDS011;5822;51.000;5.874;2024-01-11T14:31:46;35.25;;;32.67;;
11531;SDS011;5822;51.000;5.874;2024-01-11T14:34:13;35.03;;;32.53;;
11531;SDS011;5822;51.000;5.874;2024-01-11T14:36:38;32.63;;;30.33;;